< < Back
Terminal Aerodrome Forecast


Current Version              Previous Versions:   1  2  3  4  5  6  7  8  9  

Terminal Aerodrome Forecast

829
FTUS42 KJAX 020523
TAFGNV
TAF
KGNV 020523Z 0206/0306 03004KT 3SM BR OVC003
     FM020800 03002KT 1/4SM FG VV001
     FM021330 08004KT 2SM BR OVC002
     FM021600 VRB03KT P6SM OVC008
     FM021900 09003KT P6SM BKN035=

Latest METAR

556
SAUS70 KWBC 021500 RRC
MTRGNV
METAR KGNV 021453Z 00000KT 1SM BR OVC002 16/16 A3033 RMK AO2 SLP270
T01610161 53009


USA.gov is the U.S. government's official web portal to all federal, state and local government web resources and services.